createdAt,value
2023-04-29T00:00:56.254Z,91.20
2023-04-29T00:02:59.174Z,91.30
2023-04-29T00:05:05.150Z,91.20
2023-04-29T00:07:09.108Z,91.50
2023-04-29T00:09:13.197Z,90.90
2023-04-29T00:11:16.234Z,91.00
2023-04-29T00:13:19.118Z,91.40
2023-04-29T00:15:22.039Z,91.50
2023-04-29T00:17:24.853Z,91.50
2023-04-29T00:19:28.624Z,91.50
2023-04-29T00:21:31.831Z,91.60
2023-04-29T00:23:34.664Z,91.70
2023-04-29T00:25:39.090Z,91.70
2023-04-29T00:27:41.991Z,91.40
2023-04-29T00:29:44.966Z,91.10
2023-04-29T00:31:47.745Z,91.20
2023-04-29T00:33:50.525Z,91.30
2023-04-29T00:35:53.271Z,91.40
2023-04-29T00:37:56.107Z,91.30
2023-04-29T00:39:59.103Z,91.30
2023-04-29T00:42:03.966Z,91.50
2023-04-29T00:44:07.696Z,91.30
2023-04-29T00:46:10.719Z,91.10
2023-04-29T00:48:15.163Z,91.10
2023-04-29T00:50:17.960Z,91.10
2023-04-29T00:52:20.897Z,91.10
2023-04-29T00:54:23.684Z,91.20
2023-04-29T00:56:27.172Z,91.30
2023-04-29T00:58:33.618Z,91.50
2023-04-29T01:00:37.092Z,91.80
2023-04-29T01:02:40.174Z,92.10
2023-04-29T01:04:49.633Z,92.10
2023-04-29T01:07:06.301Z,92.10
2023-04-29T01:09:24.965Z,91.80
2023-04-29T01:11:35.998Z,91.90
2023-04-29T01:13:45.167Z,91.70
2023-04-29T01:15:55.672Z,91.70
2023-04-29T01:18:04.505Z,91.70
2023-04-29T01:20:10.295Z,91.90
2023-04-29T01:22:14.441Z,91.90
2023-04-29T01:24:18.534Z,91.90
2023-04-29T01:26:21.297Z,92.00
2023-04-29T01:28:44.530Z,91.90
2023-04-29T01:30:54.353Z,91.70
2023-04-29T01:33:04.453Z,91.50
2023-04-29T01:35:19.179Z,91.40
2023-04-29T01:37:34.666Z,91.70
2023-04-29T01:39:47.306Z,91.80
2023-04-29T01:41:58.871Z,92.00
2023-04-29T01:44:04.737Z,92.20
2023-04-29T01:46:09.982Z,92.00
2023-04-29T01:48:13.080Z,92.00
2023-04-29T01:50:15.850Z,92.00
2023-04-29T01:52:18.647Z,92.20
2023-04-29T01:54:22.420Z,92.30
2023-04-29T01:56:26.640Z,92.30
2023-04-29T01:58:29.562Z,92.10
2023-04-29T02:00:32.359Z,92.10
2023-04-29T02:02:35.511Z,92.20
2023-04-29T02:04:38.375Z,92.60
2023-04-29T02:06:41.153Z,92.80
2023-04-29T02:08:43.968Z,93.20
2023-04-29T02:10:53.916Z,93.20
2023-04-29T02:12:57.943Z,93.10
2023-04-29T02:15:00.791Z,93.00
2023-04-29T02:17:03.528Z,93.30
2023-04-29T02:19:06.359Z,93.50
2023-04-29T02:21:09.380Z,93.50
2023-04-29T02:23:12.126Z,93.50
2023-04-29T02:25:15.009Z,93.70
2023-04-29T02:27:18.137Z,93.80
2023-04-29T02:29:22.227Z,93.80
2023-04-29T02:31:25.112Z,93.70
2023-04-29T02:33:28.095Z,93.80
2023-04-29T02:35:30.854Z,93.90
2023-04-29T02:37:33.680Z,93.90
2023-04-29T02:39:36.499Z,93.80
2023-04-29T02:41:39.230Z,93.80
2023-04-29T02:43:42.026Z,94.00
2023-04-29T02:45:46.379Z,94.00
2023-04-29T02:47:49.373Z,94.00
2023-04-29T02:49:52.517Z,94.10
2023-04-29T02:51:55.618Z,94.10
2023-04-29T02:53:58.630Z,94.10
2023-04-29T02:56:01.378Z,94.00
2023-04-29T02:58:04.639Z,94.30
2023-04-29T03:00:08.989Z,94.40
2023-04-29T03:02:13.100Z,94.60
2023-04-29T03:04:16.108Z,94.50
2023-04-29T03:06:18.918Z,94.30
2023-04-29T03:08:22.201Z,94.20
2023-04-29T03:10:25.193Z,94.30
2023-04-29T03:12:27.968Z,94.40
2023-04-29T03:14:30.691Z,94.20
2023-04-29T03:16:33.664Z,94.50
2023-04-29T03:18:37.752Z,94.40
2023-04-29T03:20:40.519Z,94.40
2023-04-29T03:22:43.298Z,94.30
2023-04-29T03:24:46.095Z,94.30
2023-04-29T03:26:48.841Z,94.10
2023-04-29T03:28:51.619Z,94.00
2023-04-29T03:30:54.510Z,94.00
2023-04-29T03:32:57.461Z,93.70
2023-04-29T03:35:01.946Z,93.50
2023-04-29T03:37:04.654Z,93.80
2023-04-29T03:39:07.479Z,94.00
2023-04-29T03:41:10.330Z,93.80
2023-04-29T03:43:14.006Z,93.40
2023-04-29T03:45:17.665Z,93.30
2023-04-29T03:47:20.376Z,93.40
2023-04-29T03:49:23.681Z,93.40
2023-04-29T03:51:28.090Z,93.50
2023-04-29T03:53:31.407Z,94.00
2023-04-29T03:55:34.139Z,94.10
2023-04-29T03:57:36.927Z,93.80
2023-04-29T03:59:40.105Z,93.40
2023-04-29T04:01:42.878Z,93.60
2023-04-29T04:03:45.858Z,93.60
2023-04-29T04:05:48.900Z,93.70
2023-04-29T04:07:53.048Z,93.80
2023-04-29T04:09:55.803Z,93.90
2023-04-29T04:11:58.859Z,94.40
2023-04-29T04:14:01.859Z,94.40
2023-04-29T04:16:04.922Z,94.40
2023-04-29T04:18:07.762Z,94.90
2023-04-29T04:20:11.486Z,95.20
2023-04-29T04:22:14.339Z,95.20
2023-04-29T04:24:18.414Z,95.10
2023-04-29T04:26:21.586Z,95.10
2023-04-29T04:28:24.348Z,95.30
2023-04-29T04:30:27.200Z,95.50
2023-04-29T04:32:29.966Z,95.50
2023-04-29T04:34:32.791Z,95.20
2023-04-29T04:36:35.577Z,95.10
2023-04-29T04:38:38.341Z,95.50
2023-04-29T04:40:43.824Z,95.70
2023-04-29T04:42:46.586Z,95.50
2023-04-29T04:44:49.327Z,95.50
2023-04-29T04:46:52.175Z,95.40
2023-04-29T04:48:54.898Z,95.40
2023-04-29T04:50:57.618Z,95.80
2023-04-29T04:53:00.924Z,96.00
2023-04-29T04:55:03.951Z,95.70
2023-04-29T04:57:08.097Z,96.10
2023-04-29T04:59:10.864Z,96.10
2023-04-29T05:01:13.628Z,96.00
2023-04-29T05:03:16.889Z,95.70
2023-04-29T05:05:19.957Z,95.50
2023-04-29T05:07:22.690Z,95.60
2023-04-29T05:09:26.855Z,95.50
2023-04-29T05:11:29.658Z,95.60
2023-04-29T05:13:34.312Z,95.60
2023-04-29T05:15:37.176Z,95.40
2023-04-29T05:17:39.945Z,95.50
2023-04-29T05:19:42.942Z,95.50
2023-04-29T05:21:45.672Z,95.60
2023-04-29T05:23:48.559Z,95.60
2023-04-29T05:25:51.264Z,95.30
2023-04-29T05:27:54.363Z,95.40
2023-04-29T05:29:58.863Z,95.40
2023-04-29T05:32:01.622Z,95.40
2023-04-29T05:34:04.377Z,95.20
2023-04-29T05:36:07.751Z,95.50
2023-04-29T05:38:10.884Z,95.70
2023-04-29T05:40:14.016Z,95.60
2023-04-29T05:42:16.697Z,96.00
2023-04-29T05:44:19.520Z,95.80
2023-04-29T05:46:23.841Z,95.50
2023-04-29T05:48:26.641Z,94.80
2023-04-29T05:50:29.374Z,94.90
2023-04-29T05:52:32.104Z,94.80
2023-04-29T05:54:35.310Z,94.50
2023-04-29T05:56:38.111Z,94.70
2023-04-29T05:58:41.107Z,94.60
2023-04-29T06:00:44.140Z,94.70
2023-04-29T06:02:58.095Z,95.00
2023-04-29T06:05:02.151Z,95.20
2023-04-29T06:07:05.587Z,95.20
2023-04-29T06:09:13.473Z,95.20
2023-04-29T06:11:19.273Z,95.10
2023-04-29T06:13:22.025Z,95.50
2023-04-29T06:15:24.850Z,95.60
2023-04-29T06:17:29.365Z,95.50
2023-04-29T06:19:33.966Z,95.60
2023-04-29T06:21:36.712Z,95.20
2023-04-29T06:23:39.569Z,95.40
2023-04-29T06:25:42.338Z,95.10
2023-04-29T06:27:45.077Z,95.10
2023-04-29T06:29:47.912Z,95.50
2023-04-29T06:31:50.789Z,95.30
2023-04-29T06:33:53.593Z,95.40
2023-04-29T06:35:57.742Z,95.80
2023-04-29T06:38:00.493Z,95.90
2023-04-29T06:40:03.403Z,95.90
2023-04-29T06:42:06.116Z,96.40
2023-04-29T06:44:08.848Z,96.50
2023-04-29T06:46:12.420Z,96.70
2023-04-29T06:48:15.310Z,96.30
2023-04-29T06:50:18.210Z,96.30
2023-04-29T06:52:22.277Z,95.80
2023-04-29T06:54:25.604Z,95.80
2023-04-29T06:56:28.498Z,95.40
2023-04-29T06:58:31.504Z,95.40
2023-04-29T07:00:34.272Z,96.00
2023-04-29T07:02:39.121Z,96.00
2023-04-29T07:04:42.130Z,95.70
2023-04-29T07:06:47.022Z,95.00
2023-04-29T07:08:52.849Z,95.00
2023-04-29T07:10:57.162Z,95.20
2023-04-29T07:13:03.302Z,95.30
2023-04-29T07:15:06.863Z,95.20
2023-04-29T07:17:10.942Z,95.10
2023-04-29T07:19:15.413Z,95.30
2023-04-29T07:21:18.189Z,95.20
2023-04-29T07:23:20.920Z,95.00
2023-04-29T07:25:25.102Z,95.00
2023-04-29T07:27:28.501Z,94.80
2023-04-29T07:29:31.353Z,94.80
2023-04-29T07:31:36.030Z,95.10
2023-04-29T07:33:41.034Z,95.30
2023-04-29T07:35:44.613Z,94.60
2023-04-29T07:37:48.240Z,94.80
2023-04-29T07:39:51.169Z,94.70
2023-04-29T07:41:55.186Z,95.00
2023-04-29T07:43:57.928Z,95.00
2023-04-29T07:46:00.708Z,94.80
2023-04-29T07:48:03.566Z,94.60
2023-04-29T07:50:07.318Z,94.60
2023-04-29T07:52:10.339Z,93.80
2023-04-29T07:54:13.149Z,93.80
2023-04-29T07:56:16.201Z,94.20
2023-04-29T07:58:20.348Z,93.80
2023-04-29T08:00:23.469Z,93.80
2023-04-29T08:02:26.392Z,93.90
2023-04-29T08:04:29.618Z,93.40
2023-04-29T08:06:33.173Z,93.80
2023-04-29T08:08:35.966Z,93.80
2023-04-29T08:10:40.969Z,93.70
2023-04-29T08:12:49.275Z,94.00
2023-04-29T08:14:53.619Z,93.60
2023-04-29T08:16:56.647Z,93.60
2023-04-29T08:19:11.893Z,93.00
2023-04-29T08:21:14.678Z,93.40
2023-04-29T08:23:17.510Z,93.80
2023-04-29T08:25:20.576Z,93.90
2023-04-29T08:27:23.402Z,93.80
2023-04-29T08:29:26.242Z,93.60
2023-04-29T08:31:30.707Z,93.20
2023-04-29T08:33:33.632Z,93.10
2023-04-29T08:35:38.716Z,92.90
2023-04-29T08:37:43.018Z,93.00
2023-04-29T08:39:47.685Z,93.30
2023-04-29T08:41:52.209Z,93.30
2023-04-29T08:43:54.988Z,93.60
2023-04-29T08:46:00.400Z,93.40
2023-04-29T08:48:06.185Z,93.30
2023-04-29T08:50:10.955Z,93.20
2023-04-29T08:52:14.030Z,93.40
2023-04-29T08:54:16.955Z,93.40
2023-04-29T08:56:21.861Z,93.30
2023-04-29T08:58:29.252Z,92.80
2023-04-29T09:00:33.576Z,92.90
2023-04-29T09:02:42.358Z,93.50
2023-04-29T09:05:06.455Z,93.30
2023-04-29T09:07:11.243Z,93.80
2023-04-29T09:09:15.304Z,93.50
2023-04-29T09:11:18.587Z,93.20
2023-04-29T09:13:26.324Z,93.60
2023-04-29T09:15:29.226Z,93.40
2023-04-29T09:17:46.126Z,93.60
2023-04-29T09:19:49.031Z,93.70
2023-04-29T09:21:57.118Z,93.90
2023-04-29T09:24:01.080Z,93.80
2023-04-29T09:26:03.852Z,93.90
2023-04-29T09:28:16.926Z,93.40
2023-04-29T09:30:19.836Z,93.40
2023-04-29T09:32:24.621Z,93.90
2023-04-29T09:34:35.583Z,93.80
2023-04-29T09:36:46.690Z,93.90
2023-04-29T09:38:56.541Z,93.40
2023-04-29T09:41:01.173Z,93.10
2023-04-29T09:43:12.701Z,93.40
2023-04-29T09:45:33.833Z,93.40
2023-04-29T09:47:37.132Z,93.80
2023-04-29T09:49:41.981Z,93.40
2023-04-29T09:51:54.562Z,93.40
2023-04-29T09:53:59.088Z,94.00
2023-04-29T09:56:03.614Z,93.00
2023-04-29T09:58:06.489Z,92.70
2023-04-29T10:00:10.273Z,93.40
2023-04-29T10:02:16.508Z,92.70
2023-04-29T10:04:21.729Z,92.50
2023-04-29T10:06:26.454Z,92.70
2023-04-29T10:08:30.373Z,92.70
2023-04-29T10:10:34.708Z,91.80
2023-04-29T10:12:38.658Z,91.90
2023-04-29T10:14:46.519Z,92.00
2023-04-29T10:16:51.058Z,91.70
2023-04-29T10:18:56.352Z,92.10
2023-04-29T10:21:03.037Z,92.20
2023-04-29T10:23:06.340Z,91.20
2023-04-29T10:25:12.023Z,91.30
2023-04-29T10:27:16.851Z,91.70
2023-04-29T10:29:22.696Z,91.20
2023-04-29T10:31:27.712Z,91.30
2023-04-29T10:33:33.432Z,91.50
2023-04-29T10:35:36.295Z,90.60
2023-04-29T10:37:57.130Z,91.20
2023-04-29T10:40:08.348Z,91.00
2023-04-29T10:42:26.987Z,90.50
2023-04-29T10:44:29.709Z,91.20
2023-04-29T10:46:32.545Z,91.40
2023-04-29T10:48:35.396Z,91.10
2023-04-29T10:50:57.086Z,91.00
2023-04-29T10:53:03.228Z,90.80
2023-04-29T10:55:07.345Z,90.90
2023-04-29T10:57:22.926Z,91.00
2023-04-29T10:59:47.243Z,90.50
2023-04-29T11:01:51.255Z,90.90
2023-04-29T11:03:58.586Z,90.00
2023-04-29T11:06:10.055Z,90.00
2023-04-29T11:08:13.365Z,89.80
2023-04-29T11:10:16.179Z,88.90
2023-04-29T11:12:23.068Z,86.70
2023-04-29T11:14:27.696Z,88.10
2023-04-29T11:16:30.628Z,87.20
2023-04-29T11:18:34.661Z,87.00
2023-04-29T11:21:13.995Z,87.60
2023-04-29T11:23:19.462Z,86.50
2023-04-29T11:25:26.560Z,85.80
2023-04-29T11:27:33.457Z,85.40
2023-04-29T11:29:36.236Z,85.60
2023-04-29T11:31:40.053Z,86.70
2023-04-29T11:33:42.844Z,86.10
2023-04-29T11:35:45.655Z,86.30
2023-04-29T11:37:48.647Z,86.20
2023-04-29T11:39:52.195Z,85.70
2023-04-29T11:42:04.592Z,85.20
2023-04-29T11:44:10.071Z,85.50
2023-04-29T11:46:14.221Z,84.20
2023-04-29T11:48:20.372Z,84.00
2023-04-29T11:50:23.468Z,84.90
2023-04-29T11:52:26.222Z,85.40
2023-04-29T11:54:30.116Z,85.40
2023-04-29T11:56:32.972Z,84.00
2023-04-29T11:58:35.767Z,84.30
2023-04-29T12:00:39.928Z,83.70
2023-04-29T12:02:46.234Z,86.10
2023-04-29T12:04:49.807Z,84.70
2023-04-29T12:06:53.354Z,85.30
2023-04-29T12:08:56.092Z,84.90
2023-04-29T12:11:00.154Z,84.10
2023-04-29T12:13:03.456Z,84.90
2023-04-29T12:15:07.456Z,85.00
2023-04-29T12:17:11.907Z,84.00
2023-04-29T12:19:14.901Z,85.40
2023-04-29T12:21:17.842Z,85.00
2023-04-29T12:23:23.123Z,82.80
2023-04-29T12:25:27.620Z,83.90
2023-04-29T12:27:30.877Z,84.70
2023-04-29T12:29:34.066Z,84.00
2023-04-29T12:31:36.983Z,84.70
2023-04-29T12:33:44.282Z,84.30
2023-04-29T12:35:47.080Z,81.60
2023-04-29T12:37:50.934Z,83.70
2023-04-29T12:39:56.101Z,83.40
2023-04-29T12:41:59.768Z,82.70
2023-04-29T12:44:04.183Z,82.90
2023-04-29T12:46:08.597Z,81.60
2023-04-29T12:48:22.104Z,81.60
2023-04-29T12:50:35.181Z,81.30
2023-04-29T12:52:37.925Z,81.00
2023-04-29T12:54:43.419Z,81.00
2023-04-29T12:56:48.554Z,80.70
2023-04-29T12:58:52.248Z,80.30
2023-04-29T13:00:55.232Z,79.60
2023-04-29T13:02:58.155Z,80.50
2023-04-29T13:05:01.662Z,81.70
2023-04-29T13:07:06.392Z,80.70
2023-04-29T13:09:17.945Z,82.10
2023-04-29T13:11:21.748Z,82.40
2023-04-29T13:13:24.535Z,83.40
2023-04-29T13:15:27.831Z,83.00
2023-04-29T13:17:30.661Z,80.50
2023-04-29T13:19:49.517Z,82.40
2023-04-29T13:21:53.968Z,81.90
2023-04-29T13:23:58.073Z,81.40
2023-04-29T13:26:01.183Z,81.10
2023-04-29T13:28:05.457Z,81.40
2023-04-29T13:30:09.644Z,80.60
2023-04-29T13:32:12.561Z,81.20
2023-04-29T13:34:15.723Z,81.00
2023-04-29T13:36:18.533Z,80.10
2023-04-29T13:38:22.899Z,80.80
2023-04-29T13:40:28.235Z,80.40
2023-04-29T13:42:32.639Z,79.80
2023-04-29T13:46:48.674Z,79.80
2023-04-29T13:51:34.290Z,80.00
2023-04-29T13:53:51.078Z,80.90
2023-04-29T13:58:37.836Z,81.50
2023-04-29T14:00:31.764Z,80.70
2023-04-29T14:02:37.402Z,80.70
2023-04-29T14:04:40.531Z,80.40
2023-04-29T14:06:44.684Z,79.80
2023-04-29T14:08:47.493Z,79.50
2023-04-29T14:10:51.613Z,79.70
2023-04-29T14:12:54.357Z,80.00
2023-04-29T14:14:59.485Z,78.60
2023-04-29T14:17:03.720Z,77.70
2023-04-29T14:19:07.106Z,75.70
2023-04-29T14:21:11.032Z,76.30
2023-04-29T14:23:13.762Z,77.50
2023-04-29T14:25:16.717Z,76.00
2023-04-29T14:27:21.642Z,75.50
2023-04-29T14:29:24.566Z,77.10
2023-04-29T14:31:28.913Z,76.60
2023-04-29T14:33:31.907Z,76.20
2023-04-29T14:35:34.647Z,76.20
2023-04-29T14:37:37.433Z,76.10
2023-04-29T14:39:40.206Z,77.50
2023-04-29T14:41:42.957Z,77.40
2023-04-29T14:43:46.982Z,77.10
2023-04-29T14:45:50.114Z,76.90
2023-04-29T14:47:52.924Z,77.60
2023-04-29T14:49:56.393Z,77.60
2023-04-29T14:51:59.234Z,77.30
2023-04-29T14:54:01.972Z,76.80
2023-04-29T14:56:04.907Z,76.40
2023-04-29T14:58:09.377Z,77.10
2023-04-29T15:00:15.468Z,78.10
2023-04-29T15:02:18.218Z,77.90
2023-04-29T15:04:20.990Z,75.70
2023-04-29T15:06:23.766Z,77.10
2023-04-29T15:08:26.668Z,76.90
2023-04-29T15:10:29.562Z,76.60
2023-04-29T15:12:32.259Z,77.30
2023-04-29T15:14:35.546Z,77.20
2023-04-29T15:16:39.639Z,78.00
2023-04-29T15:18:45.510Z,77.90
2023-04-29T15:20:48.544Z,78.00
2023-04-29T15:22:51.298Z,78.60
2023-04-29T15:24:54.020Z,78.60
2023-04-29T15:26:56.767Z,78.40
2023-04-29T15:28:59.553Z,77.10
2023-04-29T15:31:04.671Z,78.10
2023-04-29T15:33:08.744Z,78.00
2023-04-29T15:35:12.649Z,78.50
2023-04-29T15:37:15.375Z,78.60
2023-04-29T15:39:18.243Z,78.50
2023-04-29T15:41:21.662Z,78.60
2023-04-29T15:43:24.558Z,78.80
2023-04-29T15:45:27.474Z,78.50
2023-04-29T15:47:30.298Z,79.20
2023-04-29T15:49:34.400Z,78.80
2023-04-29T15:51:37.152Z,79.30
2023-04-29T15:53:39.901Z,78.90
2023-04-29T15:55:42.662Z,78.80
2023-04-29T15:57:45.628Z,78.40
2023-04-29T15:59:48.427Z,78.30
2023-04-29T16:01:51.381Z,79.10
2023-04-29T16:03:54.408Z,78.60
2023-04-29T16:05:58.641Z,79.20
2023-04-29T16:08:01.450Z,78.60
2023-04-29T16:10:04.606Z,78.70
2023-04-29T16:12:08.508Z,78.30
2023-04-29T16:14:11.259Z,78.50
2023-04-29T16:16:14.048Z,78.50
2023-04-29T16:18:17.524Z,78.70
2023-04-29T16:20:20.661Z,79.00
2023-04-29T16:22:25.396Z,79.20
2023-04-29T16:24:28.128Z,79.70
2023-04-29T16:26:30.935Z,79.40
2023-04-29T16:28:33.692Z,79.60
2023-04-29T16:30:36.714Z,79.90
2023-04-29T16:32:41.490Z,79.60
2023-04-29T16:34:44.351Z,79.50
2023-04-29T16:36:47.066Z,79.90
2023-04-29T16:38:51.370Z,80.40
2023-04-29T16:40:54.652Z,80.80
2023-04-29T16:42:57.839Z,80.20
2023-04-29T16:45:00.626Z,80.30
2023-04-29T16:47:03.607Z,81.20
2023-04-29T16:49:07.068Z,81.60
2023-04-29T16:51:09.799Z,80.70
2023-04-29T16:53:13.478Z,80.80
2023-04-29T16:55:17.691Z,80.70
2023-04-29T16:57:21.322Z,81.60
2023-04-29T16:59:24.184Z,81.50
2023-04-29T17:01:27.052Z,81.20
2023-04-29T17:03:30.876Z,81.30
2023-04-29T17:05:33.880Z,81.00
2023-04-29T17:07:36.744Z,81.20
2023-04-29T17:09:39.522Z,80.60
2023-04-29T17:11:43.604Z,80.40
2023-04-29T17:13:46.379Z,79.20
2023-04-29T17:15:49.169Z,80.50
2023-04-29T17:17:52.659Z,80.60
2023-04-29T17:19:55.950Z,81.00
2023-04-29T17:21:58.880Z,81.10
2023-04-29T17:24:01.594Z,81.80
2023-04-29T17:26:05.730Z,81.60
2023-04-29T17:28:09.799Z,81.60
2023-04-29T17:30:13.675Z,81.80
2023-04-29T17:32:17.530Z,81.50
2023-04-29T17:34:23.783Z,81.50
2023-04-29T17:36:26.840Z,81.70
2023-04-29T17:38:29.661Z,81.40
2023-04-29T17:40:32.425Z,81.80
2023-04-29T17:42:35.191Z,82.40
2023-04-29T17:44:39.241Z,82.20
2023-04-29T17:46:42.610Z,82.40
2023-04-29T17:48:45.315Z,82.50
2023-04-29T17:50:48.390Z,81.10
2023-04-29T17:52:51.126Z,81.80
2023-04-29T17:54:54.447Z,81.80
2023-04-29T17:56:57.289Z,82.10
2023-04-29T17:59:00.038Z,81.90
2023-04-29T18:01:06.357Z,81.60
2023-04-29T18:03:09.262Z,81.70
2023-04-29T18:05:12.078Z,81.40
2023-04-29T18:07:14.902Z,80.90
2023-04-29T18:09:17.914Z,81.20
2023-04-29T18:11:21.114Z,80.90
2023-04-29T18:13:26.550Z,81.50
2023-04-29T18:15:30.353Z,81.50
2023-04-29T18:17:34.736Z,81.30
2023-04-29T18:19:37.491Z,81.00
2023-04-29T18:21:40.297Z,81.70
2023-04-29T18:23:43.016Z,82.10
2023-04-29T18:25:45.836Z,82.10
2023-04-29T18:27:48.705Z,82.20
2023-04-29T18:29:51.705Z,82.50
2023-04-29T18:31:54.720Z,82.50
2023-04-29T18:33:58.904Z,82.50
2023-04-29T18:36:01.895Z,82.80
2023-04-29T18:38:04.807Z,82.60
2023-04-29T18:40:08.929Z,82.70
2023-04-29T18:42:12.017Z,82.70
2023-04-29T18:44:14.775Z,82.60
2023-04-29T18:46:17.606Z,82.60
2023-04-29T18:48:20.522Z,82.60
2023-04-29T18:50:24.616Z,82.70
2023-04-29T18:52:27.434Z,82.80
2023-04-29T18:54:30.209Z,82.90
2023-04-29T18:56:32.957Z,82.90
2023-04-29T18:58:36.022Z,82.50
2023-04-29T19:00:38.798Z,82.50
2023-04-29T19:02:41.620Z,82.60
2023-04-29T19:04:44.991Z,82.50
2023-04-29T19:06:49.074Z,82.30
2023-04-29T19:08:52.440Z,82.30
2023-04-29T19:10:55.205Z,82.30
2023-04-29T19:12:57.956Z,82.20
2023-04-29T19:15:00.719Z,82.40
2023-04-29T19:17:03.450Z,82.40
2023-04-29T19:19:06.652Z,82.50
2023-04-29T19:21:10.146Z,82.50
2023-04-29T19:23:14.225Z,82.40
2023-04-29T19:25:16.954Z,82.60
2023-04-29T19:27:19.721Z,82.70
2023-04-29T19:29:22.665Z,83.10
2023-04-29T19:31:25.504Z,83.70
2023-04-29T19:33:28.300Z,84.60
2023-04-29T19:35:31.124Z,84.00
2023-04-29T19:37:33.944Z,84.10
2023-04-29T19:39:37.996Z,83.90
2023-04-29T19:41:40.712Z,83.70
2023-04-29T19:43:43.417Z,84.20
2023-04-29T19:45:46.188Z,84.60
2023-04-29T19:47:49.973Z,85.20
2023-04-29T19:49:53.098Z,85.30
2023-04-29T19:51:56.054Z,85.50
2023-04-29T19:54:01.509Z,85.80
2023-04-29T19:56:05.932Z,85.80
2023-04-29T19:58:09.082Z,86.10
2023-04-29T20:00:14.630Z,86.40
2023-04-29T20:02:17.491Z,86.50
2023-04-29T20:04:20.969Z,86.60
2023-04-29T20:06:23.862Z,86.40
2023-04-29T20:08:26.698Z,86.50
2023-04-29T20:10:30.186Z,86.30
2023-04-29T20:12:35.624Z,86.20
2023-04-29T20:14:38.420Z,85.90
2023-04-29T20:16:41.542Z,86.40
2023-04-29T20:18:44.272Z,86.40
2023-04-29T20:20:47.189Z,86.00
2023-04-29T20:22:49.941Z,86.40
2023-04-29T20:24:52.719Z,86.50
2023-04-29T20:26:55.475Z,86.40
2023-04-29T20:28:59.845Z,85.90
2023-04-29T20:31:02.618Z,85.50
2023-04-29T20:33:07.018Z,85.40
2023-04-29T20:35:11.577Z,85.00
2023-04-29T20:37:14.556Z,84.90
2023-04-29T20:39:18.120Z,84.70
2023-04-29T20:41:20.964Z,84.80
2023-04-29T20:43:23.700Z,84.90
2023-04-29T20:45:28.002Z,85.20
2023-04-29T20:47:30.754Z,85.10
2023-04-29T20:49:33.685Z,85.10
2023-04-29T20:51:36.505Z,85.10
2023-04-29T20:53:39.259Z,85.00
2023-04-29T20:55:42.091Z,85.50
2023-04-29T20:57:44.822Z,85.80
2023-04-29T20:59:47.646Z,85.80
2023-04-29T21:01:51.965Z,85.70
2023-04-29T21:03:54.724Z,85.70
2023-04-29T21:05:57.724Z,85.50
2023-04-29T21:08:00.625Z,85.60
2023-04-29T21:10:03.424Z,86.30
2023-04-29T21:12:06.475Z,86.50
2023-04-29T21:14:09.278Z,87.10
2023-04-29T21:16:12.110Z,87.40
2023-04-29T21:18:16.322Z,87.40
2023-04-29T21:20:19.105Z,87.40
2023-04-29T21:22:21.831Z,87.20
2023-04-29T21:24:24.978Z,87.20
2023-04-29T21:26:27.760Z,87.10
2023-04-29T21:28:30.613Z,87.00
2023-04-29T21:30:33.365Z,86.70
2023-04-29T21:32:36.130Z,86.50
2023-04-29T21:34:40.194Z,86.00
2023-04-29T21:36:42.976Z,85.70
2023-04-29T21:38:45.777Z,85.40
2023-04-29T21:40:49.301Z,85.30
2023-04-29T21:42:52.616Z,85.00
2023-04-29T21:44:56.332Z,84.80
2023-04-29T21:47:00.749Z,85.10
2023-04-29T21:49:04.402Z,85.80
2023-04-29T21:51:08.570Z,85.00
2023-04-29T21:53:12.715Z,85.00
2023-04-29T21:55:17.256Z,85.20
2023-04-29T21:57:26.324Z,85.50
2023-04-29T21:59:35.174Z,85.90
2023-04-29T22:01:48.480Z,86.10
2023-04-29T22:03:51.663Z,86.10
2023-04-29T22:05:54.801Z,86.10
2023-04-29T22:08:00.647Z,85.80
2023-04-29T22:10:03.501Z,86.00
2023-04-29T22:12:06.487Z,85.80
2023-04-29T22:14:09.303Z,86.00
2023-04-29T22:16:12.312Z,86.20
2023-04-29T22:18:15.296Z,86.10
2023-04-29T22:20:18.076Z,85.90
2023-04-29T22:22:20.839Z,85.70
2023-04-29T22:24:24.946Z,85.70
2023-04-29T22:26:27.767Z,85.70
2023-04-29T22:28:30.566Z,85.60
2023-04-29T22:30:33.555Z,85.80
2023-04-29T22:32:36.969Z,86.00
2023-04-29T22:34:40.030Z,86.30
2023-04-29T22:36:42.751Z,86.60
2023-04-29T22:38:45.793Z,86.40
2023-04-29T22:40:53.614Z,86.20
2023-04-29T22:42:56.354Z,86.90
2023-04-29T22:44:59.100Z,87.50
2023-04-29T22:47:02.055Z,87.40
2023-04-29T22:49:04.859Z,88.10
2023-04-29T22:51:07.601Z,88.40
2023-04-29T22:53:10.369Z,88.50
2023-04-29T22:55:13.121Z,88.30
2023-04-29T22:57:17.230Z,88.30
2023-04-29T22:59:19.983Z,88.50
2023-04-29T23:01:22.881Z,88.50
2023-04-29T23:03:26.351Z,88.30
2023-04-29T23:05:29.992Z,88.10
2023-04-29T23:07:32.745Z,87.90
2023-04-29T23:09:35.494Z,87.60
2023-04-29T23:11:38.248Z,87.70
2023-04-29T23:13:42.404Z,87.40
2023-04-29T23:15:45.628Z,87.30
2023-04-29T23:17:48.519Z,87.20
2023-04-29T23:19:51.530Z,87.70
2023-04-29T23:21:54.325Z,87.80
2023-04-29T23:23:57.113Z,87.90
2023-04-29T23:25:59.936Z,88.00
2023-04-29T23:28:02.707Z,87.80
2023-04-29T23:30:08.797Z,87.50
2023-04-29T23:32:11.574Z,87.90
2023-04-29T23:34:16.443Z,88.20
2023-04-29T23:36:19.158Z,88.20
2023-04-29T23:38:21.922Z,88.00
2023-04-29T23:40:24.718Z,87.70
2023-04-29T23:42:27.790Z,87.70
2023-04-29T23:44:30.646Z,87.70
2023-04-29T23:46:34.746Z,88.10
2023-04-29T23:48:37.528Z,88.00
2023-04-29T23:50:40.293Z,87.80
2023-04-29T23:52:43.073Z,88.50
2023-04-29T23:54:45.805Z,87.90
2023-04-29T23:56:48.511Z,88.30
2023-04-29T23:58:51.250Z,89.70
